Terminal Aerodrome Forecast
Issued by NWS

Home | Current Version | Previous Version | Text Only | Print | Product List | Glossary On
Versions: 1 2 3 4 5 6 7 8 9 10 11 12 13 14 15 16 17 18 19 20 21 22 23
000
FTUS43 KLSX 191732
TAFUIN
TAF
KUIN 191732Z 1918/2018 15007KT 1SM -RA BR BKN004 OVC012
     FM200100 09004KT 1SM BR OVC003
     FM201000 VRB03KT 1/2SM FG OVC003
     FM201600 14004KT 2SM BR OVC003=

USA.gov is the U.S. government's official web portal to all federal, state and local government web resources and services.